createdAt,value
2018-04-27T00:02:20.306Z,67.20
2018-04-27T00:04:48.720Z,67.70
2018-04-27T00:07:16.373Z,67.70
2018-04-27T00:09:44.052Z,67.60
2018-04-27T00:12:11.677Z,67.40
2018-04-27T00:14:39.179Z,67.30
2018-04-27T00:17:06.801Z,67.40
2018-04-27T00:19:34.493Z,67.30
2018-04-27T00:22:02.036Z,67.20
2018-04-27T00:24:29.537Z,67.40
2018-04-27T00:26:57.132Z,67.50
2018-04-27T00:29:24.649Z,67.50
2018-04-27T00:31:52.166Z,67.60
2018-04-27T00:34:19.856Z,67.70
2018-04-27T00:36:47.395Z,68.00
2018-04-27T00:39:15.972Z,67.80
2018-04-27T00:41:43.632Z,67.80
2018-04-27T00:44:11.293Z,67.70
2018-04-27T00:46:38.797Z,67.60
2018-04-27T00:49:06.470Z,67.70
2018-04-27T00:51:34.005Z,67.60
2018-04-27T00:54:01.629Z,67.90
2018-04-27T00:56:29.208Z,67.80
2018-04-27T00:58:56.846Z,68.00
2018-04-27T01:01:24.507Z,67.90
2018-04-27T01:03:52.169Z,68.00
2018-04-27T01:06:19.701Z,68.10
2018-04-27T01:08:52.069Z,67.70
2018-04-27T01:11:19.598Z,67.70
2018-04-27T01:13:47.143Z,67.60
2018-04-27T01:16:15.600Z,67.70
2018-04-27T01:18:43.097Z,67.70
2018-04-27T01:21:10.933Z,67.70
2018-04-27T01:23:38.457Z,67.70
2018-04-27T01:26:06.019Z,67.70
2018-04-27T01:28:33.684Z,67.60
2018-04-27T01:31:01.547Z,67.60
2018-04-27T01:33:29.051Z,67.60
2018-04-27T01:35:56.703Z,67.50
2018-04-27T01:38:25.669Z,67.20
2018-04-27T01:40:53.190Z,67.20
2018-04-27T01:43:20.912Z,67.10
2018-04-27T01:45:48.444Z,67.10
2018-04-27T01:48:16.066Z,67.10
2018-04-27T01:50:45.013Z,67.20
2018-04-27T01:53:12.543Z,67.20
2018-04-27T01:55:40.071Z,67.30
2018-04-27T01:58:07.589Z,67.20
2018-04-27T02:00:35.091Z,67.20
2018-04-27T02:03:02.594Z,67.10
2018-04-27T02:05:30.105Z,66.90
2018-04-27T02:07:58.382Z,66.80
2018-04-27T02:10:27.493Z,66.90
2018-04-27T02:12:55.741Z,66.90
2018-04-27T02:15:23.562Z,66.90
2018-04-27T02:17:51.142Z,67.00
2018-04-27T02:20:18.857Z,66.90
2018-04-27T02:22:47.159Z,67.30
2018-04-27T02:25:14.619Z,67.20
2018-04-27T02:27:42.061Z,67.10
2018-04-27T02:30:09.618Z,67.20
2018-04-27T02:32:37.343Z,67.30
2018-04-27T02:35:04.803Z,67.10
2018-04-27T02:37:32.243Z,67.30
2018-04-27T02:40:00.481Z,67.50
2018-04-27T02:42:28.152Z,67.40
2018-04-27T02:44:56.627Z,67.80
2018-04-27T02:47:24.183Z,67.70
2018-04-27T02:49:51.732Z,67.80
2018-04-27T02:52:19.214Z,67.60
2018-04-27T02:54:46.741Z,67.60
2018-04-27T02:57:14.208Z,67.80
2018-04-27T02:59:41.798Z,67.70
2018-04-27T03:02:10.775Z,67.90
2018-04-27T03:04:38.231Z,67.90
2018-04-27T03:07:05.807Z,67.80
2018-04-27T03:09:33.471Z,67.80
2018-04-27T03:12:00.923Z,67.80
2018-04-27T03:14:29.423Z,68.00
2018-04-27T03:16:56.860Z,68.00
2018-04-27T03:19:24.504Z,68.20
2018-04-27T03:21:51.964Z,68.30
2018-04-27T03:24:19.445Z,68.40
2018-04-27T03:26:46.896Z,68.70
2018-04-27T03:29:15.110Z,68.50
2018-04-27T03:31:42.600Z,68.50
2018-04-27T03:34:10.283Z,68.60
2018-04-27T03:36:37.916Z,68.60
2018-04-27T03:39:05.379Z,68.70
2018-04-27T03:41:33.032Z,68.80
2018-04-27T03:44:00.692Z,68.70
2018-04-27T03:46:28.169Z,68.80
2018-04-27T03:48:55.728Z,68.80
2018-04-27T03:51:23.182Z,69.00
2018-04-27T03:53:51.446Z,69.00
2018-04-27T03:56:19.016Z,69.00
2018-04-27T03:58:46.554Z,68.90
2018-04-27T04:07:37.080Z,69.00
2018-04-27T04:10:04.570Z,68.90
2018-04-27T04:12:33.656Z,68.70
2018-04-27T04:15:01.128Z,68.70
2018-04-27T04:17:28.655Z,68.80
2018-04-27T04:19:56.114Z,68.90
2018-04-27T04:22:23.579Z,68.80
2018-04-27T04:24:51.142Z,69.10
2018-04-27T04:27:18.813Z,69.00
2018-04-27T04:29:46.291Z,69.20
2018-04-27T04:32:13.730Z,69.20
2018-04-27T04:34:41.168Z,69.20
2018-04-27T04:37:10.273Z,69.10
2018-04-27T04:39:37.716Z,69.10
2018-04-27T04:42:05.259Z,68.90
2018-04-27T04:44:32.725Z,68.90
2018-04-27T04:47:00.275Z,68.70
2018-04-27T04:49:27.734Z,68.70
2018-04-27T04:51:55.189Z,68.60
2018-04-27T04:54:22.759Z,68.70
2018-04-27T04:56:50.206Z,68.70
2018-04-27T04:59:17.772Z,68.70
2018-04-27T05:01:45.332Z,68.80
2018-04-27T05:04:12.774Z,68.70
2018-04-27T05:06:40.232Z,68.60
2018-04-27T05:09:08.019Z,68.50
2018-04-27T05:11:35.477Z,68.50
2018-04-27T05:14:03.012Z,68.60
2018-04-27T05:16:30.457Z,68.80
2018-04-27T05:18:58.996Z,68.90
2018-04-27T05:21:27.345Z,69.10
2018-04-27T05:23:54.808Z,69.10
2018-04-27T05:26:22.277Z,69.30
2018-04-27T05:28:49.725Z,69.30
2018-04-27T05:31:23.719Z,69.30
2018-04-27T05:33:51.392Z,69.30
2018-04-27T05:36:19.852Z,69.30
2018-04-27T05:38:47.737Z,69.20
2018-04-27T05:41:15.211Z,69.10
2018-04-27T05:43:42.666Z,69.10
2018-04-27T05:46:10.878Z,68.80
2018-04-27T05:48:38.386Z,68.80
2018-04-27T05:51:05.843Z,68.80
2018-04-27T05:53:33.297Z,68.60
2018-04-27T05:56:02.366Z,68.10
2018-04-27T05:58:30.053Z,68.00
2018-04-27T06:00:57.484Z,68.00
2018-04-27T06:03:24.952Z,67.80
2018-04-27T06:05:54.052Z,67.30
2018-04-27T06:08:23.018Z,67.40
2018-04-27T06:10:50.603Z,67.40
2018-04-27T06:13:18.237Z,67.20
2018-04-27T06:15:45.901Z,67.30
2018-04-27T06:18:13.381Z,67.10
2018-04-27T06:20:42.471Z,66.80
2018-04-27T06:23:10.106Z,66.80
2018-04-27T06:25:37.641Z,66.70
2018-04-27T06:28:05.148Z,66.40
2018-04-27T06:30:32.699Z,66.60
2018-04-27T06:33:00.155Z,66.90
2018-04-27T06:35:27.819Z,66.40
2018-04-27T06:37:55.271Z,66.00
2018-04-27T06:40:22.927Z,65.90
2018-04-27T06:42:50.379Z,66.30
2018-04-27T06:45:17.842Z,66.30
2018-04-27T06:47:45.510Z,66.10
2018-04-27T06:50:12.960Z,66.40
2018-04-27T06:52:40.615Z,66.30
2018-04-27T06:55:08.182Z,66.50
2018-04-27T06:57:35.634Z,65.90
2018-04-27T07:00:03.209Z,65.60
2018-04-27T07:02:31.479Z,64.70
2018-04-27T07:04:59.132Z,64.70
2018-04-27T07:07:26.590Z,64.70
2018-04-27T07:09:54.822Z,64.90
2018-04-27T07:12:22.269Z,64.90
2018-04-27T07:14:49.735Z,63.90
2018-04-27T07:17:17.243Z,63.80
2018-04-27T07:19:44.886Z,63.50
2018-04-27T07:22:12.564Z,63.30
2018-04-27T07:24:40.213Z,62.90
2018-04-27T07:27:08.693Z,63.20
2018-04-27T07:29:36.164Z,63.30
2018-04-27T07:32:03.612Z,63.50
2018-04-27T07:34:31.098Z,63.40
2018-04-27T07:36:58.733Z,63.70
2018-04-27T07:39:26.403Z,63.20
2018-04-27T07:41:56.232Z,63.10
2018-04-27T07:44:23.813Z,63.10
2018-04-27T07:46:51.482Z,63.60
2018-04-27T07:49:19.036Z,63.60
2018-04-27T07:51:46.508Z,63.50
2018-04-27T07:54:14.387Z,63.40
2018-04-27T07:56:42.583Z,64.00
2018-04-27T07:59:10.891Z,63.00
2018-04-27T08:01:38.353Z,63.00
2018-04-27T08:04:05.886Z,62.60
2018-04-27T08:06:33.294Z,62.80
2018-04-27T08:09:00.777Z,62.20
2018-04-27T08:11:28.220Z,62.20
2018-04-27T08:13:55.686Z,61.70
2018-04-27T08:16:23.250Z,62.00
2018-04-27T08:18:50.702Z,61.60
2018-04-27T08:21:18.158Z,61.40
2018-04-27T08:23:45.615Z,61.10
2018-04-27T08:26:13.088Z,60.90
2018-04-27T08:28:40.622Z,60.10
2018-04-27T08:31:08.316Z,60.90
2018-04-27T08:33:35.764Z,60.70
2018-04-27T08:36:03.298Z,60.00
2018-04-27T08:38:30.676Z,60.10
2018-04-27T08:40:58.507Z,59.70
2018-04-27T08:43:25.967Z,59.60
2018-04-27T08:45:53.629Z,58.90
2018-04-27T08:48:21.297Z,58.90
2018-04-27T08:50:48.908Z,59.20
2018-04-27T08:53:16.691Z,58.80
2018-04-27T08:55:44.167Z,59.20
2018-04-27T08:58:11.635Z,58.90
2018-04-27T09:00:39.185Z,58.60
2018-04-27T09:03:06.638Z,58.50
2018-04-27T09:05:34.133Z,58.40
2018-04-27T09:08:01.597Z,57.90
2018-04-27T09:10:29.227Z,57.60
2018-04-27T09:12:56.879Z,57.70
2018-04-27T09:15:24.547Z,57.60
2018-04-27T09:17:51.997Z,56.90
2018-04-27T09:20:19.671Z,57.00
2018-04-27T09:22:47.289Z,55.80
2018-04-27T09:25:14.775Z,55.30
2018-04-27T09:27:42.231Z,55.10
2018-04-27T09:30:09.680Z,55.00
2018-04-27T09:32:37.355Z,54.50
2018-04-27T09:35:04.845Z,54.40
2018-04-27T09:37:32.349Z,53.50
2018-04-27T09:39:59.922Z,53.30
2018-04-27T09:42:27.594Z,52.50
2018-04-27T09:44:55.033Z,53.60
2018-04-27T09:47:22.612Z,51.60
2018-04-27T09:49:50.172Z,51.30
2018-04-27T09:52:17.810Z,51.20
2018-04-27T09:54:45.269Z,51.10
2018-04-27T09:57:12.728Z,51.00
2018-04-27T09:59:40.203Z,50.40
2018-04-27T10:02:07.835Z,50.20
2018-04-27T10:04:35.375Z,49.00
2018-04-27T10:07:02.976Z,46.90
2018-04-27T10:09:30.639Z,47.20
2018-04-27T10:11:58.293Z,47.10
2018-04-27T10:14:26.017Z,48.00
2018-04-27T10:16:53.628Z,47.50
2018-04-27T10:19:21.064Z,45.70
2018-04-27T10:21:48.550Z,45.90
2018-04-27T10:24:16.044Z,44.80
2018-04-27T10:26:43.477Z,44.30
2018-04-27T10:29:11.036Z,45.20
2018-04-27T10:31:38.486Z,44.90
2018-04-27T10:34:06.696Z,45.40
2018-04-27T10:36:34.305Z,45.40
2018-04-27T10:39:01.946Z,44.80
2018-04-27T10:41:29.412Z,44.40
2018-04-27T10:43:57.040Z,44.70
2018-04-27T10:46:24.511Z,44.30
2018-04-27T10:48:51.964Z,43.60
2018-04-27T10:51:19.443Z,43.20
2018-04-27T10:53:47.361Z,42.40
2018-04-27T10:56:14.816Z,42.70
2018-04-27T10:58:42.269Z,42.50
2018-04-27T11:01:10.529Z,43.00
2018-04-27T11:03:37.990Z,43.50
2018-04-27T11:06:05.502Z,44.10
2018-04-27T11:08:32.901Z,43.70
2018-04-27T11:11:00.587Z,43.20
2018-04-27T11:13:27.969Z,42.90
2018-04-27T11:15:55.447Z,43.40
2018-04-27T11:18:22.871Z,42.80
2018-04-27T11:20:50.354Z,43.20
2018-04-27T11:23:18.031Z,43.00
2018-04-27T11:25:45.652Z,43.90
2018-04-27T11:28:13.104Z,44.00
2018-04-27T11:30:40.565Z,43.30
2018-04-27T11:33:08.095Z,43.30
2018-04-27T11:35:35.535Z,42.90
2018-04-27T11:38:03.130Z,43.50
2018-04-27T11:40:30.596Z,44.00
2018-04-27T11:42:58.129Z,44.10
2018-04-27T11:45:25.717Z,43.40
2018-04-27T11:47:53.187Z,42.80
2018-04-27T11:50:20.626Z,42.90
2018-04-27T11:52:48.287Z,44.20
2018-04-27T11:55:15.746Z,43.30
2018-04-27T11:57:44.836Z,43.30
2018-04-27T12:00:12.319Z,43.30
2018-04-27T12:02:39.955Z,43.50
2018-04-27T12:05:07.398Z,42.50
2018-04-27T12:07:34.864Z,43.30
2018-04-27T12:10:02.364Z,43.40
2018-04-27T12:12:29.792Z,42.20
2018-04-27T12:14:57.251Z,42.40
2018-04-27T12:17:25.455Z,42.80
2018-04-27T12:19:52.906Z,42.90
2018-04-27T12:22:21.235Z,41.40
2018-04-27T12:24:48.673Z,41.40
2018-04-27T12:27:16.156Z,42.20
2018-04-27T12:29:43.797Z,42.00
2018-04-27T12:32:11.474Z,42.40
2018-04-27T12:34:39.121Z,42.10
2018-04-27T12:37:06.595Z,41.50
2018-04-27T12:39:34.062Z,42.20
2018-04-27T12:42:01.519Z,42.30
2018-04-27T12:44:28.988Z,42.30
2018-04-27T12:46:56.612Z,42.20
2018-04-27T12:49:24.054Z,42.20
2018-04-27T12:51:51.513Z,42.30
2018-04-27T12:54:18.960Z,43.20
2018-04-27T12:56:46.405Z,43.30
2018-04-27T12:59:13.870Z,43.80
2018-04-27T13:01:41.571Z,44.50
2018-04-27T13:04:09.019Z,44.20
2018-04-27T13:06:36.468Z,44.10
2018-04-27T13:09:03.925Z,44.30
2018-04-27T13:11:31.391Z,43.10
2018-04-27T13:13:58.854Z,43.50
2018-04-27T13:16:26.297Z,42.90
2018-04-27T13:18:53.748Z,43.30
2018-04-27T13:21:21.287Z,43.30
2018-04-27T13:23:48.733Z,43.40
2018-04-27T13:26:16.192Z,43.90
2018-04-27T13:28:43.769Z,44.10
2018-04-27T13:31:11.209Z,44.60
2018-04-27T13:33:38.686Z,43.80
2018-04-27T13:36:06.361Z,44.40
2018-04-27T13:38:33.826Z,43.90
2018-04-27T13:41:02.056Z,43.80
2018-04-27T13:43:29.539Z,43.90
2018-04-27T13:45:57.001Z,44.40
2018-04-27T13:48:24.661Z,45.00
2018-04-27T13:50:52.127Z,45.90
2018-04-27T13:53:19.580Z,46.60
2018-04-27T13:55:48.063Z,45.20
2018-04-27T13:58:17.147Z,44.90
2018-04-27T14:00:44.796Z,44.80
2018-04-27T14:03:12.263Z,45.80
2018-04-27T14:05:39.752Z,45.30
2018-04-27T14:08:07.179Z,45.00
2018-04-27T14:10:34.695Z,45.60
2018-04-27T14:13:02.127Z,45.00
2018-04-27T14:15:29.759Z,45.00
2018-04-27T14:17:57.414Z,45.50
2018-04-27T14:20:24.898Z,45.80
2018-04-27T14:22:52.404Z,45.10
2018-04-27T14:25:19.848Z,45.40
2018-04-27T14:27:47.301Z,44.20
2018-04-27T14:30:14.968Z,43.80
2018-04-27T14:32:42.408Z,44.10
2018-04-27T14:35:10.019Z,46.20
2018-04-27T14:37:37.543Z,45.20
2018-04-27T14:40:05.149Z,45.60
2018-04-27T14:42:33.374Z,43.70
2018-04-27T14:45:00.829Z,43.70
2018-04-27T14:47:28.319Z,44.40
2018-04-27T14:49:55.783Z,44.00
2018-04-27T14:52:23.405Z,44.20
2018-04-27T14:54:51.564Z,44.30
2018-04-27T14:57:19.035Z,44.30
2018-04-27T14:59:46.603Z,45.90
2018-04-27T15:02:14.280Z,45.20
2018-04-27T15:04:41.737Z,44.90
2018-04-27T15:07:10.692Z,45.00
2018-04-27T15:09:38.246Z,45.00
2018-04-27T15:12:05.712Z,44.10
2018-04-27T15:14:33.632Z,43.50
2018-04-27T15:17:04.203Z,44.60
2018-04-27T15:19:34.665Z,43.70
2018-04-27T15:22:03.646Z,43.80
2018-04-27T15:24:34.559Z,43.80
2018-04-27T15:27:02.165Z,44.50
2018-04-27T15:29:29.615Z,43.70
2018-04-27T15:31:57.847Z,44.20
2018-04-27T15:34:28.607Z,44.30
2018-04-27T15:36:58.307Z,44.80
2018-04-27T15:39:25.767Z,44.30
2018-04-27T15:41:53.232Z,44.60
2018-04-27T15:44:21.421Z,43.40
2018-04-27T15:46:51.824Z,44.30
2018-04-27T15:49:19.306Z,44.20
2018-04-27T15:51:46.904Z,44.00
2018-04-27T15:54:14.409Z,43.60
2018-04-27T15:56:41.861Z,44.20
2018-04-27T15:59:09.319Z,43.60
2018-04-27T16:01:36.760Z,43.90
2018-04-27T16:04:05.131Z,43.90
2018-04-27T16:06:33.008Z,43.70
2018-04-27T16:09:00.580Z,43.60
2018-04-27T16:11:28.034Z,44.50
2018-04-27T16:13:56.505Z,44.30
2018-04-27T16:16:24.186Z,44.50
2018-04-27T16:18:54.976Z,44.90
2018-04-27T16:21:23.104Z,45.50
2018-04-27T16:23:50.576Z,45.20
2018-04-27T16:26:18.077Z,45.20
2018-04-27T16:28:45.552Z,44.40
2018-04-27T16:31:12.997Z,44.80
2018-04-27T16:33:40.448Z,46.20
2018-04-27T16:36:07.902Z,48.50
2018-04-27T16:38:35.375Z,48.00
2018-04-27T16:41:02.819Z,48.70
2018-04-27T16:43:30.298Z,49.50
2018-04-27T16:45:57.747Z,49.90
2018-04-27T16:48:25.282Z,49.90
2018-04-27T16:50:52.797Z,49.90
2018-04-27T16:53:21.026Z,50.40
2018-04-27T16:55:48.465Z,50.40
2018-04-27T16:58:16.039Z,51.20
2018-04-27T17:00:43.506Z,51.30
2018-04-27T17:03:11.090Z,50.80
2018-04-27T17:05:39.431Z,50.60
2018-04-27T17:08:06.875Z,50.60
2018-04-27T17:10:34.327Z,50.40
2018-04-27T17:13:01.799Z,51.00
2018-04-27T17:15:29.262Z,51.20
2018-04-27T17:17:56.922Z,51.60
2018-04-27T17:20:24.373Z,51.50
2018-04-27T17:22:52.043Z,51.60
2018-04-27T17:25:19.508Z,51.90
2018-04-27T17:27:47.155Z,53.00
2018-04-27T17:30:14.600Z,51.60
2018-04-27T17:32:42.070Z,51.20
2018-04-27T17:35:09.564Z,51.50
2018-04-27T17:37:36.971Z,52.30
2018-04-27T17:40:04.444Z,51.40
2018-04-27T17:42:31.876Z,51.70
2018-04-27T17:44:59.339Z,51.30
2018-04-27T17:47:26.874Z,51.10
2018-04-27T17:49:54.420Z,50.50
2018-04-27T17:52:23.889Z,50.00
2018-04-27T17:54:51.785Z,50.10
2018-04-27T17:57:19.400Z,49.10
2018-04-27T17:59:48.511Z,49.20
2018-04-27T18:02:17.355Z,49.20
2018-04-27T18:04:46.267Z,49.20
2018-04-27T18:07:17.586Z,48.20
2018-04-27T18:09:45.175Z,48.10
2018-04-27T18:12:13.009Z,48.50
2018-04-27T18:14:41.347Z,48.10
2018-04-27T18:17:09.144Z,48.00
2018-04-27T18:19:36.651Z,48.30
2018-04-27T18:22:06.005Z,47.70
2018-04-27T18:24:33.453Z,48.10
2018-04-27T18:27:01.071Z,47.40
2018-04-27T18:29:28.723Z,47.10
2018-04-27T18:31:56.243Z,46.90
2018-04-27T18:34:23.701Z,47.10
2018-04-27T18:36:51.927Z,47.40
2018-04-27T18:39:19.429Z,47.40
2018-04-27T18:41:48.324Z,47.50
2018-04-27T18:44:15.755Z,47.50
2018-04-27T18:46:43.222Z,47.70
2018-04-27T18:49:11.490Z,48.10
2018-04-27T18:51:39.179Z,48.20
2018-04-27T18:54:06.624Z,48.60
2018-04-27T18:56:36.944Z,48.80
2018-04-27T18:59:05.080Z,49.30
2018-04-27T19:01:33.429Z,49.70
2018-04-27T19:04:01.076Z,49.60
2018-04-27T19:06:29.918Z,49.70
2018-04-27T19:08:58.442Z,50.00
2018-04-27T19:11:25.992Z,50.30
2018-04-27T19:13:53.463Z,50.20
2018-04-27T19:16:21.015Z,50.20
2018-04-27T19:18:49.128Z,50.10
2018-04-27T19:21:19.696Z,50.30
2018-04-27T19:23:47.327Z,50.60
2018-04-27T19:26:14.796Z,50.60
2018-04-27T19:28:42.297Z,50.90
2018-04-27T19:31:10.410Z,50.80
2018-04-27T19:33:38.713Z,51.30
2018-04-27T19:36:06.238Z,51.30
2018-04-27T19:38:33.831Z,51.70
2018-04-27T19:41:01.358Z,51.70
2018-04-27T19:43:28.808Z,51.90
2018-04-27T19:45:56.427Z,52.10
2018-04-27T19:48:23.891Z,52.30
2018-04-27T19:50:56.644Z,52.20
2018-04-27T19:53:25.064Z,52.20
2018-04-27T19:55:52.611Z,52.40
2018-04-27T19:58:20.227Z,52.50
2018-04-27T20:00:47.665Z,52.80
2018-04-27T20:03:15.888Z,52.70
2018-04-27T20:05:44.569Z,52.70
2018-04-27T20:08:12.166Z,52.70
2018-04-27T20:10:40.673Z,52.40
2018-04-27T20:13:13.427Z,53.20
2018-04-27T20:15:43.544Z,52.50
2018-04-27T20:18:16.872Z,52.20
2018-04-27T20:20:49.311Z,51.60
2018-04-27T20:23:18.500Z,51.80
2018-04-27T20:25:49.941Z,52.00
2018-04-27T20:28:18.081Z,51.90
2018-04-27T20:30:45.639Z,51.50
2018-04-27T20:33:13.132Z,51.70
2018-04-27T20:35:40.602Z,51.60
2018-04-27T20:38:27.184Z,51.50
2018-04-27T20:40:56.472Z,51.70
2018-04-27T20:43:26.297Z,52.00
2018-04-27T20:45:54.569Z,51.80
2018-04-27T20:48:23.426Z,52.20
2018-04-27T20:51:01.344Z,53.00
2018-04-27T20:53:33.962Z,52.20
2018-04-27T20:56:02.496Z,52.10
2018-04-27T20:58:30.172Z,52.10
2018-04-27T21:00:57.687Z,52.10
2018-04-27T21:03:29.975Z,52.50
2018-04-27T21:05:57.706Z,52.50
2018-04-27T21:08:27.795Z,52.20
2018-04-27T21:10:55.269Z,52.20
2018-04-27T21:13:24.022Z,52.40
2018-04-27T21:15:51.509Z,52.30
2018-04-27T21:18:20.021Z,52.60
2018-04-27T21:20:47.572Z,52.70
2018-04-27T21:23:16.599Z,52.50
2018-04-27T21:25:45.751Z,52.50
2018-04-27T21:28:17.251Z,52.70
2018-04-27T21:30:48.883Z,52.60
2018-04-27T21:33:16.364Z,52.70
2018-04-27T21:35:47.521Z,53.00
2018-04-27T21:38:20.858Z,52.80
2018-04-27T21:40:49.133Z,53.20
2018-04-27T21:43:17.372Z,53.20
2018-04-27T21:45:44.835Z,53.20
2018-04-27T21:48:15.455Z,53.10
2018-04-27T21:50:42.917Z,53.20
2018-04-27T21:53:11.809Z,53.50
2018-04-27T21:55:40.144Z,53.50
2018-04-27T21:58:10.223Z,53.60
2018-04-27T22:00:39.163Z,53.70
2018-04-27T22:03:23.522Z,53.80
2018-04-27T22:09:08.646Z,53.90
2018-04-27T22:11:43.652Z,54.20
2018-04-27T22:14:15.870Z,54.10
2018-04-27T22:16:43.476Z,54.30
2018-04-27T22:19:13.328Z,54.30
2018-04-27T22:21:41.864Z,54.20
2018-04-27T22:24:11.346Z,54.20
2018-04-27T22:26:40.658Z,54.20
2018-04-27T22:32:22.724Z,54.30
2018-04-27T22:34:56.076Z,54.40
2018-04-27T22:37:23.555Z,54.60
2018-04-27T22:39:51.694Z,54.50
2018-04-27T22:42:26.172Z,54.60
2018-04-27T22:44:57.474Z,54.80
2018-04-27T22:47:34.742Z,54.70
2018-04-27T22:50:02.342Z,54.80
2018-04-27T22:52:32.936Z,54.50
2018-04-27T22:55:00.583Z,54.70
2018-04-27T22:57:34.199Z,55.00
2018-04-27T23:00:18.531Z,55.30
2018-04-27T23:02:47.843Z,55.20
2018-04-27T23:05:26.221Z,55.30
2018-04-27T23:07:57.875Z,55.30
2018-04-27T23:13:34.502Z,55.00
2018-04-27T23:16:02.759Z,55.20
2018-04-27T23:21:36.520Z,55.00
2018-04-27T23:24:03.987Z,54.80
2018-04-27T23:26:31.442Z,55.10
2018-04-27T23:28:58.883Z,55.10
2018-04-27T23:31:26.333Z,55.60
2018-04-27T23:33:53.801Z,56.10
2018-04-27T23:36:21.271Z,56.10
2018-04-27T23:38:48.713Z,57.70
2018-04-27T23:41:16.180Z,58.50
2018-04-27T23:43:43.744Z,59.60
2018-04-27T23:46:11.199Z,58.10
2018-04-27T23:48:39.782Z,58.50
2018-04-27T23:51:07.426Z,58.40
2018-04-27T23:53:35.710Z,58.10
2018-04-27T23:56:03.185Z,57.70
2018-04-27T23:58:31.388Z,57.80
